createdAt,value
2023-02-27T00:03:49.682Z,50.5
2023-02-27T00:09:20.257Z,50
2023-02-27T00:14:50.730Z,50.5
2023-02-27T00:20:21.205Z,50
2023-02-27T00:25:50.687Z,50
2023-02-27T00:31:21.256Z,50
2023-02-27T00:36:50.629Z,50
2023-02-27T00:42:21.110Z,50
2023-02-27T00:47:51.637Z,50
2023-02-27T00:53:21.100Z,50
2023-02-27T00:58:51.575Z,50
2023-02-27T01:04:22.055Z,50
2023-02-27T01:09:51.531Z,50
2023-02-27T01:15:22.004Z,50
2023-02-27T01:20:52.506Z,50
2023-02-27T01:26:21.974Z,50.5
2023-02-27T01:31:52.548Z,50.5
2023-02-27T01:37:22.969Z,50.5
2023-02-27T01:42:53.536Z,50.5
2023-02-27T01:48:24.031Z,50.5
2023-02-27T01:53:53.518Z,50.5
2023-02-27T01:59:23.997Z,50.5
2023-02-27T02:04:53.484Z,50.5
2023-02-27T02:10:23.977Z,50.5
2023-02-27T02:15:54.442Z,50.5
2023-02-27T02:21:25.523Z,50.5
2023-02-27T02:26:55.614Z,50.5
2023-02-27T02:32:26.215Z,50
2023-02-27T02:37:55.532Z,50
2023-02-27T02:43:26.034Z,50
2023-02-27T02:48:56.521Z,50
2023-02-27T02:54:26.020Z,50
2023-02-27T02:59:56.513Z,50
2023-02-27T03:05:26.210Z,50
2023-02-27T03:10:56.596Z,50
2023-02-27T03:16:27.112Z,50.5
2023-02-27T03:21:57.659Z,50
2023-02-27T03:27:28.168Z,50
2023-02-27T03:32:57.668Z,49.5
2023-02-27T03:38:28.112Z,50
2023-02-27T03:43:58.580Z,49.5
2023-02-27T03:49:29.216Z,49.5
2023-02-27T03:54:59.688Z,49
2023-02-27T04:01:36.278Z,49
2023-02-27T04:07:06.836Z,49
2023-02-27T04:12:37.303Z,49
2023-02-27T04:18:07.869Z,49
2023-02-27T04:23:37.387Z,49
2023-02-27T04:29:07.834Z,49
2023-02-27T04:34:38.422Z,48.5
2023-02-27T04:40:08.937Z,48.5
2023-02-27T04:45:39.390Z,48.5
2023-02-27T04:51:11.354Z,48.5
2023-02-27T04:56:40.490Z,48.5
2023-02-27T05:02:11.155Z,48.5
2023-02-27T05:07:41.647Z,48.5
2023-02-27T05:13:12.113Z,48.5
2023-02-27T05:18:42.595Z,48.5
2023-02-27T05:24:13.321Z,48.5
2023-02-27T05:29:43.824Z,48
2023-02-27T05:35:13.302Z,48.5
2023-02-27T05:40:43.752Z,48
2023-02-27T05:46:13.407Z,48
2023-02-27T05:51:43.731Z,48
2023-02-27T05:57:14.228Z,48.5
2023-02-27T06:02:43.737Z,48.5
2023-02-27T06:08:14.175Z,48.5
2023-02-27T06:13:44.682Z,48.5
2023-02-27T06:19:14.198Z,48.5
2023-02-27T06:24:44.832Z,48.5
2023-02-27T06:30:15.385Z,48.5
2023-02-27T06:35:45.935Z,48.5
2023-02-27T06:41:16.314Z,48.5
2023-02-27T06:46:46.943Z,48.5
2023-02-27T06:52:17.552Z,48.5
2023-02-27T06:57:48.219Z,48.5
2023-02-27T07:03:18.476Z,48.5
2023-02-27T07:09:02.251Z,48.5
2023-02-27T07:14:18.436Z,48.5
2023-02-27T07:19:48.910Z,48.5
2023-02-27T07:25:19.391Z,48.5
2023-02-27T07:30:48.919Z,48.5
2023-02-27T07:36:19.348Z,48.5
2023-02-27T07:41:49.850Z,48.5
2023-02-27T07:47:19.307Z,48.5
2023-02-27T07:52:49.783Z,48.5
2023-02-27T07:58:20.392Z,48.5
2023-02-27T08:03:50.845Z,48.5
2023-02-27T08:09:21.347Z,48.5
2023-02-27T08:14:51.938Z,48.5
2023-02-27T08:20:22.382Z,48.5
2023-02-27T08:25:52.002Z,48.5
2023-02-27T08:31:22.457Z,48.5
2023-02-27T08:36:52.826Z,48.5
2023-02-27T08:42:24.896Z,48.5
2023-02-27T08:47:53.881Z,48.5
2023-02-27T08:53:24.470Z,48.5
2023-02-27T08:58:53.966Z,48.5
2023-02-27T09:04:24.471Z,48.5
2023-02-27T09:09:54.996Z,48.5
2023-02-27T09:15:24.526Z,48.5
2023-02-27T09:20:55.146Z,48.5
2023-02-27T09:26:39.702Z,48.5
2023-02-27T09:31:55.166Z,48.5
2023-02-27T09:37:25.586Z,48.5
2023-02-27T09:42:56.089Z,48.5
2023-02-27T09:48:26.597Z,48.5
2023-02-27T09:53:57.105Z,48.5
2023-02-27T09:59:27.572Z,48.5
2023-02-27T10:04:58.288Z,48.5
2023-02-27T10:10:28.802Z,48.5
2023-02-27T10:15:59.358Z,48.5
2023-02-27T10:21:31.157Z,49
2023-02-27T10:27:00.335Z,49
2023-02-27T10:32:30.901Z,49
2023-02-27T10:38:01.376Z,49
2023-02-27T10:43:31.896Z,49
2023-02-27T10:49:01.360Z,49
2023-02-27T10:54:31.829Z,49
2023-02-27T11:00:02.627Z,49
2023-02-27T11:05:32.922Z,49
2023-02-27T11:11:03.395Z,49
2023-02-27T11:16:32.919Z,49
2023-02-27T11:22:03.384Z,49
2023-02-27T11:27:33.857Z,49
2023-02-27T11:33:04.490Z,49
2023-02-27T11:38:34.940Z,49
2023-02-27T11:44:05.413Z,49
2023-02-27T11:49:36.044Z,49
2023-02-27T11:55:06.478Z,49
2023-02-27T12:00:37.098Z,49
2023-02-27T12:06:07.706Z,49
2023-02-27T12:11:38.182Z,49
2023-02-27T12:17:08.632Z,49
2023-02-27T12:22:39.324Z,49
2023-02-27T12:28:09.783Z,49
2023-02-27T12:33:40.358Z,49
2023-02-27T12:39:10.877Z,49
2023-02-27T12:44:41.316Z,49
2023-02-27T12:50:10.805Z,49
2023-02-27T12:55:41.456Z,49
2023-02-27T13:01:11.918Z,49
2023-02-27T13:06:42.369Z,49
2023-02-27T13:12:13.016Z,49
2023-02-27T13:17:43.477Z,49
2023-02-27T13:23:12.935Z,49.5
2023-02-27T13:28:43.451Z,49.5
2023-02-27T13:34:13.906Z,49.5
2023-02-27T13:39:44.480Z,49
2023-02-27T13:45:15.277Z,49.5
2023-02-27T13:50:45.450Z,49.5
2023-02-27T13:56:15.171Z,49.5
2023-02-27T14:01:45.563Z,49.5
2023-02-27T14:07:16.016Z,49.5
2023-02-27T14:12:46.916Z,49.5
2023-02-27T14:18:32.271Z,49.5
2023-02-27T14:23:47.572Z,49.5
2023-02-27T14:29:18.024Z,49.5
2023-02-27T14:34:48.683Z,49.5
2023-02-27T14:40:28.085Z,49.5
2023-02-27T14:45:48.771Z,49
2023-02-27T14:51:18.120Z,49.5
2023-02-27T14:57:54.647Z,49
2023-02-27T15:03:25.151Z,49
2023-02-27T15:08:55.761Z,48.5
2023-02-27T15:14:26.225Z,48
2023-02-27T15:19:56.678Z,47.5
2023-02-27T15:25:26.188Z,47.5
2023-02-27T15:30:56.712Z,47
2023-02-27T15:36:27.125Z,47
2023-02-27T15:41:56.642Z,47
2023-02-27T15:47:27.094Z,47.5
2023-02-27T15:52:56.565Z,47.5
2023-02-27T15:58:27.119Z,48
2023-02-27T16:03:57.515Z,48
2023-02-27T16:09:26.995Z,48.5
2023-02-27T16:14:57.504Z,48.5
2023-02-27T16:20:27.925Z,48.5
2023-02-27T16:25:57.424Z,48.5
2023-02-27T16:31:27.970Z,48.5
2023-02-27T16:36:58.506Z,48.5
2023-02-27T16:42:28.984Z,48.5
2023-02-27T16:47:59.580Z,48.5
2023-02-27T16:53:28.959Z,48.5
2023-02-27T16:58:59.418Z,49
2023-02-27T17:04:30.000Z,49
2023-02-27T17:10:00.626Z,49
2023-02-27T17:15:31.078Z,49
2023-02-27T17:21:01.709Z,49
2023-02-27T17:26:32.165Z,49
2023-02-27T17:32:02.690Z,49
2023-02-27T17:37:33.278Z,49
2023-02-27T17:43:03.701Z,49
2023-02-27T17:48:34.197Z,49
2023-02-27T17:54:03.707Z,49
2023-02-27T17:59:34.183Z,49
2023-02-27T18:05:04.648Z,49
2023-02-27T18:10:34.168Z,49
2023-02-27T18:16:04.657Z,49
2023-02-27T18:21:35.157Z,49
2023-02-27T18:27:04.587Z,49
2023-02-27T18:32:35.063Z,49
2023-02-27T18:38:04.571Z,49
2023-02-27T18:43:35.041Z,49
2023-02-27T18:49:05.519Z,49
2023-02-27T18:54:36.079Z,49
2023-02-27T19:00:06.595Z,49
2023-02-27T19:05:37.030Z,48.5
2023-02-27T19:11:06.506Z,48.5
2023-02-27T19:16:37.122Z,48.5
2023-02-27T19:22:07.494Z,48.5
2023-02-27T19:27:36.974Z,48.5
2023-02-27T19:33:07.488Z,48.5
2023-02-27T19:38:38.046Z,48
2023-02-27T19:44:08.543Z,48.5
2023-02-27T19:49:39.036Z,48.5
2023-02-27T19:55:09.608Z,48
2023-02-27T20:00:40.122Z,48.5
2023-02-27T20:06:09.674Z,48.5
2023-02-27T20:11:40.122Z,48.5
2023-02-27T20:17:10.703Z,48.5
2023-02-27T20:22:41.219Z,48.5
2023-02-27T20:28:11.675Z,48.5
2023-02-27T20:33:41.320Z,48
2023-02-27T20:39:11.811Z,48
2023-02-27T20:44:42.286Z,48
2023-02-27T20:50:11.794Z,48
2023-02-27T20:55:42.297Z,48
2023-02-27T21:01:11.773Z,48
2023-02-27T21:06:42.247Z,48
2023-02-27T21:12:12.779Z,48
2023-02-27T21:17:43.315Z,48
2023-02-27T21:23:13.793Z,48
2023-02-27T21:28:44.411Z,48.5
2023-02-27T21:34:14.869Z,49
2023-02-27T21:39:45.361Z,49
2023-02-27T21:45:14.862Z,49
2023-02-27T21:50:45.340Z,49
2023-02-27T21:56:15.796Z,49
2023-02-27T22:01:45.359Z,49
2023-02-27T22:07:15.796Z,49
2023-02-27T22:12:46.265Z,49
2023-02-27T22:18:15.891Z,49
2023-02-27T22:23:46.331Z,49
2023-02-27T22:29:15.830Z,49
2023-02-27T22:34:46.339Z,49
2023-02-27T22:40:16.796Z,49
2023-02-27T22:45:47.364Z,49
2023-02-27T22:51:17.897Z,49
2023-02-27T22:56:48.330Z,49
2023-02-27T23:02:17.814Z,49
2023-02-27T23:07:48.328Z,49
2023-02-27T23:13:18.768Z,49
2023-02-27T23:18:49.366Z,49
2023-02-27T23:24:19.872Z,49
2023-02-27T23:29:50.329Z,49
2023-02-27T23:35:19.814Z,49
2023-02-27T23:40:50.310Z,49.5
2023-02-27T23:46:19.783Z,49
2023-02-27T23:51:50.262Z,49.5
2023-02-27T23:57:20.782Z,49.5
